Аэропорт: Элиста. Элиста

ICAO: URWI

METAR:
2020-10-24 05:30:00
URWI 240530Z 25006MPS 9999 SCT033 14/08 Q1018 R27/010065 NOSIG
METAR:
2020-10-24 05:00:00
TAF URWI 240500Z 2406/2415 25003G09MPS 9999 SCT030 TEMPO 2406/2415 23008G14MPS